Weather at Trabzon International Airport

Public forecast

Using degrees Celsius for public forecast. Weather courtesy of forecast.io.

Current aviation weather report (METAR) for Trabzon International Airport

Retrieved 2020/10/31 08:20 UTC (29 minutes ago):

LTCG 310820Z VRB02KT 7000 SCT035 BKN100 21/17 Q1015 NOSIG RMK RWY29 09003KT 070V140

Aviation forecast (TAF) for Trabzon International Airport

Retrieved 2020/10/31 06:00 UTC (3 hours ago):

TAF LTCG 310440Z 3106/0106 VRB02KT 8000 SCT012 BKN100 BECMG 3108/3112 SCT012 BKN033 PROB30 TEMPO 3109/3113 -SHRA SCT008 FEW020CB BKN028 TEMPO 3113/3117 30013KT -TSRA SCT008 FEW020CB BKN028 TEMPO 3117/3121 -TSRA SCT008 FEW020CB BKN028